createdAt,value
2022-11-16T00:00:34.576Z,18.71
2022-11-16T00:03:05.634Z,18.71
2022-11-16T00:05:35.405Z,18.68
2022-11-16T00:08:05.225Z,18.71
2022-11-16T00:10:35.257Z,18.62
2022-11-16T00:13:04.995Z,18.50
2022-11-16T00:15:34.833Z,18.45
2022-11-16T00:18:04.587Z,18.33
2022-11-16T00:20:34.503Z,18.29
2022-11-16T00:23:04.791Z,18.29
2022-11-16T00:25:35.834Z,18.18
2022-11-16T00:28:05.722Z,18.14
2022-11-16T00:30:35.515Z,18.14
2022-11-16T00:33:06.616Z,18.21
2022-11-16T00:35:41.235Z,18.29
2022-11-16T00:38:11.242Z,18.21
2022-11-16T00:40:41.001Z,18.14
2022-11-16T00:43:11.331Z,18.18
2022-11-16T00:45:43.628Z,18.26
2022-11-16T00:48:14.639Z,18.18
2022-11-16T00:50:47.048Z,18.09
2022-11-16T00:53:20.906Z,17.90
2022-11-16T00:55:51.189Z,17.93
2022-11-16T00:58:22.787Z,17.92
2022-11-16T01:01:04.546Z,17.79
2022-11-16T01:03:36.344Z,17.71
2022-11-16T01:06:12.384Z,17.66
2022-11-16T01:08:44.859Z,17.63
2022-11-16T01:11:34.669Z,17.63
2022-11-16T01:14:08.197Z,17.71
2022-11-16T01:16:38.662Z,17.68
2022-11-16T01:19:10.484Z,17.71
2022-11-16T01:21:40.824Z,17.62
2022-11-16T01:24:10.795Z,17.61
2022-11-16T01:26:40.665Z,17.52
2022-11-16T01:29:10.402Z,17.53
2022-11-16T01:31:43.900Z,17.39
2022-11-16T01:34:13.842Z,17.32
2022-11-16T01:36:44.022Z,17.34
2022-11-16T01:39:15.223Z,17.35
2022-11-16T01:41:56.110Z,17.31
2022-11-16T01:44:35.031Z,17.27
2022-11-16T01:47:13.951Z,17.21
2022-11-16T01:49:49.079Z,17.06
2022-11-16T01:52:28.956Z,16.97
2022-11-16T01:54:59.724Z,16.84
2022-11-16T01:57:37.529Z,16.76
2022-11-16T02:00:12.983Z,16.70
2022-11-16T02:03:05.928Z,16.80
2022-11-16T02:05:53.820Z,16.83
2022-11-16T02:08:59.475Z,16.63
2022-11-16T02:12:00.349Z,16.56
2022-11-16T02:14:45.147Z,16.46
2022-11-16T02:17:40.964Z,16.55
2022-11-16T02:20:59.524Z,16.65
2022-11-16T02:23:35.719Z,16.66
2022-11-16T02:26:20.894Z,16.67
2022-11-16T02:29:29.889Z,16.49
2022-11-16T02:32:26.049Z,16.46
2022-11-16T02:35:07.143Z,16.39
2022-11-16T02:37:41.850Z,16.30
2022-11-16T02:40:16.161Z,16.38
2022-11-16T02:42:56.124Z,16.41
2022-11-16T02:45:30.237Z,16.35
2022-11-16T02:48:06.145Z,16.30
2022-11-16T02:50:38.432Z,16.29
2022-11-16T02:53:08.616Z,16.22
2022-11-16T02:55:39.403Z,16.21
2022-11-16T02:58:12.635Z,16.19
2022-11-16T03:00:49.194Z,16.33
2022-11-16T03:03:40.949Z,16.33
2022-11-16T03:06:22.381Z,16.35
2022-11-16T03:09:09.398Z,16.39
2022-11-16T03:12:02.440Z,16.32
2022-11-16T03:14:54.178Z,16.19
2022-11-16T03:17:31.565Z,16.18
2022-11-16T03:20:19.472Z,16.22
2022-11-16T03:23:00.458Z,16.24
2022-11-16T03:25:40.252Z,16.18
2022-11-16T03:28:38.512Z,15.97
2022-11-16T03:31:29.516Z,15.88
2022-11-16T03:34:06.066Z,15.85
2022-11-16T03:36:40.392Z,15.98
2022-11-16T03:39:18.966Z,15.97
2022-11-16T03:41:51.380Z,15.91
2022-11-16T03:44:23.272Z,15.94
2022-11-16T03:46:53.635Z,16.00
2022-11-16T03:49:25.392Z,16.02
2022-11-16T03:51:56.789Z,15.97
2022-11-16T03:54:27.173Z,15.94
2022-11-16T03:56:57.190Z,15.98
2022-11-16T03:59:26.935Z,15.98
2022-11-16T04:01:56.599Z,15.97
2022-11-16T04:04:43.912Z,15.94
2022-11-16T04:07:31.918Z,15.95
2022-11-16T04:10:20.286Z,16.02
2022-11-16T04:13:08.602Z,16.01
2022-11-16T04:15:57.391Z,15.93
2022-11-16T04:18:45.264Z,15.83
2022-11-16T04:21:50.702Z,15.77
2022-11-16T04:24:26.304Z,15.78
2022-11-16T04:27:21.061Z,15.70
2022-11-16T04:29:52.533Z,15.70
2022-11-16T04:32:46.390Z,15.77
2022-11-16T04:35:40.416Z,15.81
2022-11-16T04:38:39.991Z,15.78
2022-11-16T04:41:31.086Z,15.78
2022-11-16T04:44:28.763Z,15.74
2022-11-16T04:47:10.232Z,15.76
2022-11-16T04:49:42.706Z,15.74
2022-11-16T04:52:35.204Z,15.68
2022-11-16T04:55:11.981Z,15.78
2022-11-16T04:57:48.696Z,15.77
2022-11-16T05:00:25.243Z,15.90
2022-11-16T05:03:04.764Z,15.94
2022-11-16T05:05:36.167Z,15.87
2022-11-16T05:08:13.791Z,15.97
2022-11-16T05:10:48.336Z,16.04
2022-11-16T05:13:22.200Z,16.11
2022-11-16T05:15:55.213Z,16.19
2022-11-16T05:18:33.163Z,16.26
2022-11-16T05:21:10.266Z,16.28
2022-11-16T05:24:03.284Z,16.22
2022-11-16T05:26:34.872Z,16.14
2022-11-16T05:29:12.000Z,16.05
2022-11-16T05:31:45.215Z,15.93
2022-11-16T05:34:17.817Z,15.83
2022-11-16T05:36:49.364Z,15.85
2022-11-16T05:39:22.176Z,15.85
2022-11-16T05:41:54.937Z,15.77
2022-11-16T05:44:26.591Z,15.73
2022-11-16T05:46:58.398Z,15.83
2022-11-16T05:49:33.177Z,15.78
2022-11-16T05:52:04.749Z,15.68
2022-11-16T05:54:36.788Z,15.56
2022-11-16T05:57:08.093Z,15.60
2022-11-16T05:59:39.454Z,15.57
2022-11-16T06:02:10.818Z,15.63
2022-11-16T06:04:44.562Z,15.66
2022-11-16T06:07:16.089Z,15.54
2022-11-16T06:09:49.758Z,15.51
2022-11-16T06:12:24.510Z,15.39
2022-11-16T06:14:55.217Z,15.40
2022-11-16T06:17:26.308Z,15.40
2022-11-16T06:19:57.239Z,15.35
2022-11-16T06:22:28.586Z,15.25
2022-11-16T06:24:59.526Z,15.13
2022-11-16T06:27:31.035Z,15.18
2022-11-16T06:30:02.518Z,15.22
2022-11-16T06:32:35.309Z,15.15
2022-11-16T06:35:07.990Z,15.18
2022-11-16T06:37:40.977Z,15.12
2022-11-16T06:40:12.824Z,15.08
2022-11-16T06:42:46.566Z,15.03
2022-11-16T06:45:20.061Z,14.96
2022-11-16T06:47:56.067Z,14.87
2022-11-16T06:50:27.405Z,14.88
2022-11-16T06:52:58.394Z,14.79
2022-11-16T06:55:29.966Z,14.77
2022-11-16T06:58:00.924Z,14.72
2022-11-16T07:00:34.515Z,14.71
2022-11-16T07:03:06.899Z,14.58
2022-11-16T07:05:42.460Z,14.54
2022-11-16T07:08:16.905Z,14.52
2022-11-16T07:10:47.639Z,14.45
2022-11-16T07:13:17.857Z,14.34
2022-11-16T07:15:47.817Z,14.30
2022-11-16T07:18:17.693Z,14.27
2022-11-16T07:20:48.103Z,14.21
2022-11-16T07:23:18.657Z,14.21
2022-11-16T07:25:49.083Z,14.13
2022-11-16T07:28:33.057Z,14.02
2022-11-16T07:31:08.853Z,13.92
2022-11-16T07:33:40.614Z,13.86
2022-11-16T07:36:28.608Z,13.83
2022-11-16T07:38:59.211Z,13.82
2022-11-16T07:41:29.244Z,13.80
2022-11-16T07:44:13.066Z,13.82
2022-11-16T07:46:47.450Z,13.79
2022-11-16T07:49:20.788Z,13.75
2022-11-16T07:51:59.325Z,13.72
2022-11-16T07:54:55.604Z,13.72
2022-11-16T07:57:28.052Z,13.72
2022-11-16T08:00:01.465Z,13.71
2022-11-16T08:02:43.126Z,13.73
2022-11-16T08:05:20.010Z,13.68
2022-11-16T08:07:52.135Z,13.69
2022-11-16T08:10:25.983Z,13.63
2022-11-16T08:12:57.464Z,13.66
2022-11-16T08:27:44.891Z,13.63
2022-11-16T08:30:15.879Z,13.61
2022-11-16T08:32:47.139Z,13.75
2022-11-16T08:35:18.219Z,13.89
2022-11-16T08:37:48.470Z,13.86
2022-11-16T08:40:18.588Z,13.87
2022-11-16T08:42:49.763Z,13.99
2022-11-16T08:45:19.992Z,13.99
2022-11-16T08:47:53.616Z,13.99
2022-11-16T08:50:31.398Z,13.96
2022-11-16T08:53:03.525Z,13.96
2022-11-16T08:55:35.136Z,14.00
2022-11-16T08:58:05.281Z,14.05
2022-11-16T09:00:35.014Z,14.09
2022-11-16T09:03:04.243Z,14.14
2022-11-16T09:05:33.993Z,14.19
2022-11-16T09:08:03.694Z,14.27
2022-11-16T09:10:33.100Z,14.34
2022-11-16T09:13:02.736Z,14.44
2022-11-16T09:15:32.895Z,14.60
2022-11-16T09:18:02.553Z,14.77
2022-11-16T09:20:32.291Z,14.92
2022-11-16T09:23:01.976Z,15.15
2022-11-16T09:25:31.220Z,15.43
2022-11-16T09:28:02.343Z,15.98
2022-11-16T09:30:33.255Z,17.51
2022-11-16T09:33:03.172Z,20.96
2022-11-16T09:35:33.239Z,21.20
2022-11-16T09:38:03.454Z,18.89
2022-11-16T09:40:42.977Z,18.17
2022-11-16T09:43:47.959Z,18.00
2022-11-16T09:46:35.577Z,17.79
2022-11-16T09:49:23.286Z,18.03
2022-11-16T09:51:56.713Z,18.57
2022-11-16T09:54:31.195Z,18.13
2022-11-16T09:57:10.928Z,17.99
2022-11-16T09:59:55.253Z,17.92
2022-11-16T10:02:45.183Z,18.04
2022-11-16T10:05:28.895Z,18.33
2022-11-16T10:08:14.707Z,18.85
2022-11-16T10:11:06.122Z,22.30
2022-11-16T10:14:22.002Z,26.41
2022-11-16T10:17:34.312Z,28.29
2022-11-16T10:20:18.784Z,28.72
2022-11-16T10:23:20.592Z,28.75
2022-11-16T10:26:16.969Z,27.93
2022-11-16T10:29:19.801Z,26.68
2022-11-16T10:32:16.990Z,24.38
2022-11-16T10:35:15.993Z,23.98
2022-11-16T10:37:52.463Z,22.92
2022-11-16T10:40:27.625Z,23.24
2022-11-16T10:43:17.286Z,22.65
2022-11-16T10:46:22.586Z,23.30
2022-11-16T10:49:30.904Z,25.37
2022-11-16T10:52:01.344Z,26.04
2022-11-16T10:54:31.224Z,25.66
2022-11-16T10:57:06.893Z,25.20
2022-11-16T10:59:45.547Z,25.00
2022-11-16T11:02:35.702Z,24.76
2022-11-16T11:05:19.133Z,25.18
2022-11-16T11:07:58.335Z,25.69
2022-11-16T11:10:33.717Z,25.39
2022-11-16T11:13:09.747Z,25.93
2022-11-16T11:15:41.999Z,25.52
2022-11-16T11:18:20.377Z,25.00
2022-11-16T11:21:27.918Z,25.68
2022-11-16T11:24:16.119Z,25.97
2022-11-16T11:27:02.676Z,26.10
2022-11-16T11:29:41.690Z,26.20
2022-11-16T11:32:24.085Z,26.55
2022-11-16T11:34:56.294Z,26.88
2022-11-16T11:37:38.238Z,27.57
2022-11-16T11:40:27.669Z,27.88
2022-11-16T11:43:02.032Z,27.47
2022-11-16T11:45:46.437Z,27.77
2022-11-16T11:48:35.336Z,27.87
2022-11-16T11:51:11.022Z,27.03
2022-11-16T11:53:46.705Z,26.75
2022-11-16T11:56:17.149Z,27.32
2022-11-16T11:58:49.979Z,27.32
2022-11-16T12:01:25.528Z,27.70
2022-11-16T12:04:28.298Z,27.51
2022-11-16T12:07:18.104Z,27.76
2022-11-16T12:10:23.743Z,27.93
2022-11-16T12:13:07.641Z,27.57
2022-11-16T12:15:52.952Z,28.00
2022-11-16T12:18:40.477Z,28.22
2022-11-16T12:21:14.971Z,28.31
2022-11-16T12:23:56.838Z,28.34
2022-11-16T12:26:35.910Z,29.15
2022-11-16T12:29:28.459Z,29.06
2022-11-16T12:32:04.429Z,28.28
2022-11-16T12:34:53.724Z,28.59
2022-11-16T12:37:41.863Z,28.53
2022-11-16T12:40:55.956Z,29.00
2022-11-16T12:43:47.651Z,28.86
2022-11-16T12:46:41.518Z,29.61
2022-11-16T12:49:34.336Z,30.40
2022-11-16T12:52:36.346Z,29.39
2022-11-16T12:55:26.890Z,30.20
2022-11-16T12:58:00.083Z,30.02
2022-11-16T13:00:36.393Z,29.75
2022-11-16T13:03:16.634Z,30.41
2022-11-16T13:05:56.010Z,30.34
2022-11-16T13:08:29.317Z,30.24
2022-11-16T13:11:27.234Z,30.48
2022-11-16T13:14:02.361Z,29.76
2022-11-16T13:16:32.273Z,29.72
2022-11-16T13:19:05.367Z,29.38
2022-11-16T13:21:38.337Z,29.99
2022-11-16T13:24:08.351Z,29.65
2022-11-16T13:26:53.963Z,29.66
2022-11-16T13:29:34.540Z,30.03
2022-11-16T13:32:16.941Z,30.03
2022-11-16T13:34:47.919Z,29.90
2022-11-16T13:37:40.673Z,30.84
2022-11-16T13:40:21.672Z,29.90
2022-11-16T13:43:21.298Z,30.33
2022-11-16T13:45:52.021Z,29.96
2022-11-16T13:48:23.947Z,29.72
2022-11-16T13:51:05.148Z,30.10
2022-11-16T13:56:50.203Z,31.53
2022-11-16T13:59:29.962Z,31.15
2022-11-16T14:02:30.072Z,30.30
2022-11-16T14:05:08.204Z,29.76
2022-11-16T14:07:44.082Z,29.57
2022-11-16T14:10:34.860Z,29.86
2022-11-16T14:13:06.409Z,30.51
2022-11-16T14:15:39.882Z,30.81
2022-11-16T14:18:10.367Z,31.09
2022-11-16T14:20:43.003Z,30.80
2022-11-16T14:23:21.902Z,30.61
2022-11-16T14:26:14.768Z,30.32
2022-11-16T14:28:51.654Z,30.84
2022-11-16T14:31:30.646Z,31.28
2022-11-16T14:34:02.173Z,31.72
2022-11-16T14:36:44.628Z,31.96
2022-11-16T14:39:29.519Z,32.04
2022-11-16T14:42:04.547Z,30.92
2022-11-16T14:44:41.272Z,31.39
2022-11-16T14:47:38.360Z,32.56
2022-11-16T14:50:22.521Z,30.90
2022-11-16T14:52:59.490Z,30.65
2022-11-16T14:55:29.912Z,30.75
2022-11-16T14:58:12.589Z,30.87
2022-11-16T15:00:42.579Z,31.67
2022-11-16T15:03:14.176Z,31.22
2022-11-16T15:05:49.175Z,31.56
2022-11-16T15:08:24.381Z,32.61
2022-11-16T15:10:54.880Z,32.38
2022-11-16T15:13:26.676Z,32.24
2022-11-16T15:16:16.898Z,32.18
2022-11-16T15:19:01.642Z,32.21
2022-11-16T15:21:31.806Z,32.83
2022-11-16T15:24:28.851Z,32.80
2022-11-16T15:26:55.068Z,33.06
2022-11-16T15:29:26.493Z,33.23
2022-11-16T15:31:56.775Z,33.20
2022-11-16T15:34:30.056Z,33.24
2022-11-16T15:36:59.946Z,33.37
2022-11-16T15:39:35.688Z,33.27
2022-11-16T15:42:05.752Z,33.57
2022-11-16T15:44:35.873Z,33.12
2022-11-16T15:47:06.027Z,33.27
2022-11-16T15:49:39.428Z,33.06
2022-11-16T15:52:13.474Z,33.04
2022-11-16T15:55:01.565Z,33.37
2022-11-16T15:57:31.793Z,33.37
2022-11-16T16:00:01.546Z,33.27
2022-11-16T16:02:34.078Z,33.57
2022-11-16T16:05:04.251Z,33.57
2022-11-16T16:07:42.107Z,33.62
2022-11-16T16:10:26.000Z,33.57
2022-11-16T16:12:57.979Z,33.64
2022-11-16T16:15:38.014Z,33.58
2022-11-16T16:18:39.676Z,33.26
2022-11-16T16:21:11.084Z,32.10
2022-11-16T16:23:56.202Z,32.72
2022-11-16T16:26:26.556Z,33.10
2022-11-16T16:28:56.902Z,33.33
2022-11-16T16:31:27.196Z,33.29
2022-11-16T16:33:57.231Z,33.22
2022-11-16T16:36:27.092Z,33.03
2022-11-16T16:38:58.080Z,33.02
2022-11-16T16:41:32.083Z,33.60
2022-11-16T16:44:02.927Z,33.72
2022-11-16T16:46:39.614Z,33.77
2022-11-16T16:49:10.738Z,34.09
2022-11-16T16:51:42.007Z,33.90
2022-11-16T16:54:16.597Z,33.85
2022-11-16T16:56:48.258Z,33.61
2022-11-16T16:59:20.762Z,33.91
2022-11-16T17:01:54.800Z,34.43
2022-11-16T17:04:26.788Z,34.15
2022-11-16T17:07:01.824Z,34.11
2022-11-16T17:09:33.711Z,33.57
2022-11-16T17:12:07.402Z,33.51
2022-11-16T17:14:39.594Z,33.46
2022-11-16T17:17:10.379Z,33.31
2022-11-16T17:19:41.869Z,33.61
2022-11-16T17:22:12.485Z,34.12
2022-11-16T17:24:42.947Z,34.26
2022-11-16T17:27:14.330Z,33.74
2022-11-16T17:29:45.646Z,32.99
2022-11-16T17:32:16.375Z,33.35
2022-11-16T17:34:47.488Z,33.33
2022-11-16T17:37:21.934Z,33.14
2022-11-16T17:39:55.603Z,33.34
2022-11-16T17:42:25.779Z,33.16
2022-11-16T17:45:02.890Z,33.40
2022-11-16T17:47:35.325Z,33.19
2022-11-16T17:50:10.315Z,33.55
2022-11-16T17:52:40.602Z,33.77
2022-11-16T17:55:11.800Z,33.62
2022-11-16T17:57:42.635Z,33.57
2022-11-16T18:00:14.479Z,33.27
2022-11-16T18:02:44.889Z,33.49
2022-11-16T18:05:19.278Z,33.68
2022-11-16T18:07:52.726Z,33.37
2022-11-16T18:10:22.848Z,32.86
2022-11-16T18:12:53.669Z,33.27
2022-11-16T18:15:28.855Z,33.78
2022-11-16T18:17:59.320Z,33.30
2022-11-16T18:20:30.484Z,32.75
2022-11-16T18:23:21.239Z,32.85
2022-11-16T18:25:51.213Z,32.61
2022-11-16T18:28:21.353Z,32.71
2022-11-16T18:30:51.109Z,32.78
2022-11-16T18:33:20.798Z,32.46
2022-11-16T18:35:50.458Z,32.52
2022-11-16T18:38:20.245Z,32.48
2022-11-16T18:41:04.714Z,32.64
2022-11-16T18:43:35.699Z,32.49
2022-11-16T18:46:06.744Z,32.46
2022-11-16T18:48:36.670Z,31.93
2022-11-16T18:51:06.627Z,31.87
2022-11-16T18:53:36.708Z,31.62
2022-11-16T18:56:07.651Z,31.83
2022-11-16T18:58:53.355Z,31.69
2022-11-16T19:01:26.633Z,31.49
2022-11-16T19:03:57.932Z,31.76
2022-11-16T19:06:28.093Z,31.93
2022-11-16T19:09:00.809Z,31.46
2022-11-16T19:11:30.919Z,31.67
2022-11-16T19:14:10.319Z,31.53
2022-11-16T19:16:48.958Z,31.36
2022-11-16T19:19:21.497Z,31.19
2022-11-16T19:21:52.989Z,30.87
2022-11-16T19:24:22.958Z,30.87
2022-11-16T19:26:54.560Z,30.67
2022-11-16T19:29:24.452Z,30.61
2022-11-16T19:31:54.302Z,30.17
2022-11-16T19:34:25.827Z,30.05
2022-11-16T19:36:59.017Z,30.19
2022-11-16T19:39:29.855Z,29.96
2022-11-16T19:42:00.161Z,29.76
2022-11-16T19:44:30.029Z,29.59
2022-11-16T19:47:00.464Z,29.38
2022-11-16T19:49:30.226Z,29.82
2022-11-16T19:52:00.666Z,30.27
2022-11-16T19:54:30.340Z,29.23
2022-11-16T19:57:00.940Z,28.93
2022-11-16T19:59:31.096Z,28.65
2022-11-16T20:02:01.034Z,28.46
2022-11-16T20:04:34.720Z,28.24
2022-11-16T20:07:06.625Z,28.15
2022-11-16T20:09:41.518Z,28.05
2022-11-16T20:12:12.555Z,27.97
2022-11-16T20:14:42.597Z,27.90
2022-11-16T20:17:14.343Z,27.88
2022-11-16T20:19:44.191Z,27.84
2022-11-16T20:22:13.997Z,27.83
2022-11-16T20:24:45.268Z,27.78
2022-11-16T20:27:15.423Z,27.63
2022-11-16T20:29:46.306Z,27.54
2022-11-16T20:32:16.112Z,27.60
2022-11-16T20:34:45.836Z,27.54
2022-11-16T20:37:16.122Z,27.40
2022-11-16T20:39:48.000Z,27.36
2022-11-16T20:42:17.891Z,27.23
2022-11-16T20:44:47.572Z,27.18
2022-11-16T20:47:18.492Z,27.09
2022-11-16T20:49:48.388Z,26.94
2022-11-16T20:52:18.091Z,26.77
2022-11-16T20:54:48.337Z,26.71
2022-11-16T20:57:18.064Z,26.50
2022-11-16T20:59:48.146Z,26.58
2022-11-16T21:02:18.291Z,26.34
2022-11-16T21:04:47.958Z,26.31
2022-11-16T21:07:17.918Z,26.14
2022-11-16T21:10:05.667Z,25.90
2022-11-16T21:12:53.956Z,25.61
2022-11-16T21:15:23.955Z,25.21
2022-11-16T21:17:53.624Z,24.83
2022-11-16T21:20:28.125Z,24.56
2022-11-16T21:22:58.301Z,24.32
2022-11-16T21:25:28.026Z,23.91
2022-11-16T21:27:58.261Z,23.70
2022-11-16T21:30:27.921Z,23.47
2022-11-16T21:32:57.585Z,23.19
2022-11-16T21:35:28.202Z,22.96
2022-11-16T21:37:58.289Z,22.69
2022-11-16T21:40:28.006Z,22.44
2022-11-16T21:42:57.703Z,22.27
2022-11-16T21:45:27.418Z,22.17
2022-11-16T21:47:57.282Z,22.09
2022-11-16T21:50:33.995Z,21.86
2022-11-16T21:53:04.336Z,21.67
2022-11-16T21:55:34.728Z,21.48
2022-11-16T21:58:07.358Z,21.38
2022-11-16T22:00:37.584Z,21.23
2022-11-16T22:03:08.201Z,21.08
2022-11-16T22:05:56.506Z,20.94
2022-11-16T22:08:27.262Z,20.88
2022-11-16T22:10:57.509Z,20.79
2022-11-16T22:13:27.200Z,20.63
2022-11-16T22:15:57.412Z,20.55
2022-11-16T22:18:27.722Z,20.46
2022-11-16T22:20:57.497Z,20.47
2022-11-16T22:23:27.249Z,20.42
2022-11-16T22:26:01.909Z,20.22
2022-11-16T22:28:32.718Z,20.05
2022-11-16T22:31:06.735Z,20.02
2022-11-16T22:33:37.442Z,20.01
2022-11-16T22:36:10.348Z,19.95
2022-11-16T22:38:40.395Z,19.95
2022-11-16T22:41:10.403Z,19.88
2022-11-16T22:43:40.600Z,19.84
2022-11-16T22:46:12.460Z,19.87
2022-11-16T22:48:43.170Z,19.78
2022-11-16T22:51:31.408Z,19.74
2022-11-16T22:54:03.762Z,19.73
2022-11-16T22:56:35.118Z,19.70
2022-11-16T22:59:06.579Z,19.68
2022-11-16T23:01:37.006Z,19.61
2022-11-16T23:04:06.866Z,19.49
2022-11-16T23:06:36.572Z,19.37
2022-11-16T23:09:07.172Z,19.34
2022-11-16T23:11:56.067Z,19.33
2022-11-16T23:14:44.751Z,19.31
2022-11-16T23:17:15.012Z,19.29
2022-11-16T23:20:02.958Z,19.16
2022-11-16T23:22:52.472Z,19.09
2022-11-16T23:25:40.938Z,19.10
2022-11-16T23:28:18.130Z,19.05
2022-11-16T23:30:48.145Z,18.99
2022-11-16T23:33:17.946Z,18.98
2022-11-16T23:35:48.619Z,18.95
2022-11-16T23:38:18.353Z,18.91
2022-11-16T23:40:48.192Z,18.87
2022-11-16T23:43:37.059Z,18.81
2022-11-16T23:46:07.614Z,18.71
2022-11-16T23:48:37.392Z,18.60
2022-11-16T23:51:08.233Z,18.60
2022-11-16T23:53:38.412Z,18.45
2022-11-16T23:56:08.555Z,18.41
2022-11-16T23:58:39.131Z,18.36
